Time;durP1;ratioP1;P1;durP2;ratioP2;P2;SDS_P1;SDS_P2;PMS_P1;PMS_P2;Temp;Humidity;BMP_temperature;BMP_pressure;BME280_temperature;BME280_humidity;BME280_pressure;Samples;Min_cycle;Max_cycle;Signal;HPM_P1;HPM_P2
2023/02/06 00:00:00;;;;;;;18.69;17.14;;;;;;;0.64;64.58;101737.94;455929;116;922957;-79
2023/02/06 00:01:06;;;;;;;17.59;16.23;;;;;;;0.65;64.58;101736.11;457701;114;922950;-77
2023/02/06 00:02:09;;;;;;;17.75;16.21;;;;;;;0.66;64.48;101729.78;461199;115;922396;-76
2023/02/06 00:03:12;;;;;;;18.50;16.94;;;;;;;0.67;64.49;101728.77;459492;114;922616;-79
2023/02/06 00:04:15;;;;;;;17.35;15.95;;;;;;;0.67;64.43;101728.77;455851;115;922629;-79
2023/02/06 00:05:18;;;;;;;17.94;16.44;;;;;;;0.69;64.58;101730.38;456398;114;922417;-79
2023/02/06 00:06:21;;;;;;;19.17;17.37;;;;;;;0.71;64.52;101730.27;462099;114;923004;-77
2023/02/06 00:07:24;;;;;;;17.23;15.90;;;;;;;0.70;64.22;101726.72;461223;115;922926;-78
2023/02/06 00:08:27;;;;;;;18.29;16.81;;;;;;;0.68;64.14;101728.66;462537;113;923089;-78
2023/02/06 00:09:31;;;;;;;17.40;15.92;;;;;;;0.68;64.22;101725.98;464081;114;922533;-78
2023/02/06 00:10:34;;;;;;;17.52;16.02;;;;;;;0.69;64.36;101729.52;464022;114;922550;-77
2023/02/06 00:11:37;;;;;;;17.87;16.32;;;;;;;0.70;64.30;101728.55;463959;114;922880;-77
2023/02/06 00:12:40;;;;;;;17.86;16.37;;;;;;;0.71;64.11;101730.27;464090;114;922699;-77
2023/02/06 00:13:44;;;;;;;19.15;17.48;;;;;;;0.71;64.02;101731.12;459818;114;922873;-78
2023/02/06 00:14:47;;;;;;;18.75;17.15;;;;;;;0.71;64.10;101732.94;455850;116;922846;-77
2023/02/06 00:15:50;;;;;;;18.87;17.36;;;;;;;0.71;64.03;101730.27;457254;114;930569;-77
2023/02/06 00:16:54;;;;;;;18.51;17.02;;;;;;;0.71;63.86;101732.94;461172;114;922554;-77
2023/02/06 00:17:57;;;;;;;18.54;16.96;;;;;;;0.70;63.89;101728.55;459090;114;922737;-76
2023/02/06 00:19:01;;;;;;;17.77;16.30;;;;;;;0.70;64.01;101723.18;457783;114;922526;-79
2023/02/06 00:20:08;;;;;;;17.69;16.32;;;;;;;0.71;63.97;101724.89;458740;115;922506;-78
2023/02/06 00:21:11;;;;;;;18.74;17.03;;;;;;;0.71;63.89;101724.89;463119;114;922576;-78
2023/02/06 00:22:14;;;;;;;18.24;16.64;;;;;;;0.72;63.84;101721.20;463475;114;922535;-80
2023/02/06 00:23:17;;;;;;;19.21;17.67;;;;;;;0.72;63.86;101721.20;455920;116;922363;-77
2023/02/06 00:24:20;;;;;;;20.09;18.16;;;;;;;0.72;63.77;101724.74;455929;114;922570;-77
2023/02/06 00:25:23;;;;;;;19.57;17.98;;;;;;;0.75;63.85;101718.29;460385;114;922600;-77
2023/02/06 00:26:27;;;;;;;19.35;17.74;;;;;;;0.76;63.93;101720.86;461559;114;922357;-78
2023/02/06 00:27:30;;;;;;;18.02;16.59;;;;;;;0.79;63.91;101727.80;459579;114;930529;-79
2023/02/06 00:28:34;;;;;;;23.76;21.69;;;;;;;0.82;63.85;101723.05;463922;114;924004;-77
2023/02/06 00:29:37;;;;;;;20.61;18.81;;;;;;;0.83;63.76;101730.10;458460;114;930728;-80
2023/02/06 00:30:40;;;;;;;19.81;18.16;;;;;;;0.86;63.53;101728.16;458786;114;922488;-79
2023/02/06 00:31:43;;;;;;;18.82;17.23;;;;;;;0.83;63.42;101723.88;463974;114;922932;-76
2023/02/06 00:32:46;;;;;;;18.90;17.38;;;;;;;0.83;63.30;101732.78;463984;114;923196;-78
2023/02/06 00:33:50;;;;;;;18.36;16.76;;;;;;;0.80;63.07;101726.83;455924;114;922472;-77
2023/02/06 00:34:53;;;;;;;18.91;17.39;;;;;;;0.78;63.06;101737.67;463946;114;923041;-79
2023/02/06 00:35:56;;;;;;;18.71;17.23;;;;;;;0.77;63.08;101732.45;462762;114;922505;-79
2023/02/06 00:36:59;;;;;;;17.64;16.18;;;;;;;0.77;62.92;101737.83;455962;116;922373;-77
2023/02/06 00:38:02;;;;;;;18.44;16.91;;;;;;;0.75;63.02;101735.25;455963;116;922814;-77
2023/02/06 00:39:05;;;;;;;19.28;17.54;;;;;;;0.76;62.99;101738.80;456515;114;922952;-77
2023/02/06 00:40:09;;;;;;;18.57;17.16;;;;;;;0.76;63.12;101736.11;463933;114;922800;-78
2023/02/06 00:41:13;;;;;;;18.44;17.04;;;;;;;0.76;62.91;101728.91;463801;114;922687;-77
2023/02/06 00:42:16;;;;;;;18.07;16.57;;;;;;;0.75;62.80;101739.77;464068;114;922591;-77
2023/02/06 00:43:20;;;;;;;18.24;16.65;;;;;;;0.74;62.66;101738.05;463817;114;922461;-78
2023/02/06 00:44:25;;;;;;;17.64;16.26;;;;;;;0.71;62.57;101743.68;462251;114;922610;-79
2023/02/06 00:45:28;;;;;;;17.00;15.61;;;;;;;0.68;62.66;101739.40;455843;116;922976;-78
2023/02/06 00:46:31;;;;;;;16.95;15.44;;;;;;;0.66;62.75;101737.83;460514;114;930388;-79
2023/02/06 00:47:35;;;;;;;17.97;16.53;;;;;;;0.63;62.85;101738.06;461127;115;922966;-79
2023/02/06 00:48:38;;;;;;;18.52;16.97;;;;;;;0.61;63.04;101743.53;461122;115;922904;-78
2023/02/06 00:49:41;;;;;;;17.99;16.44;;;;;;;0.63;63.11;101738.06;462230;114;922700;-78
2023/02/06 00:50:47;;;;;;;18.66;17.06;;;;;;;0.63;63.10;101748.79;464787;114;922624;-79
2023/02/06 00:51:50;;;;;;;19.23;17.68;;;;;;;0.63;62.74;101738.91;460007;114;923073;-78
2023/02/06 00:52:53;;;;;;;18.06;16.62;;;;;;;0.59;62.57;101745.52;456795;116;922652;-79
2023/02/06 00:53:56;;;;;;;18.23;16.69;;;;;;;0.54;62.38;101745.02;456761;116;922493;-78
2023/02/06 00:54:59;;;;;;;18.57;17.07;;;;;;;0.51;62.42;101739.03;456852;116;922942;-79
2023/02/06 00:56:05;;;;;;;18.94;17.42;;;;;;;0.49;62.54;101746.37;457434;114;922956;-78
2023/02/06 00:57:08;;;;;;;20.00;18.40;;;;;;;0.48;62.59;101740.14;456778;116;922489;-79
2023/02/06 00:58:11;;;;;;;20.09;18.52;;;;;;;0.48;62.68;101736.60;457245;114;928232;-78
2023/02/06 00:59:16;;;;;;;19.93;18.23;;;;;;;0.47;62.43;101738.43;456546;114;922527;-79
2023/02/06 01:00:19;;;;;;;19.91;18.23;;;;;;;0.45;62.40;101739.51;462283;114;922830;-76
2023/02/06 01:01:24;;;;;;;20.63;18.95;;;;;;;0.43;62.50;101741.48;462620;114;923007;-77
2023/02/06 01:02:27;;;;;;;21.72;19.82;;;;;;;0.40;62.26;101738.05;461944;115;922589;-77
2023/02/06 01:03:30;;;;;;;20.13;18.35;;;;;;;0.37;62.15;101734.77;463902;114;922503;-78
2023/02/06 01:04:33;;;;;;;20.54;18.87;;;;;;;0.32;62.37;101739.65;459942;114;922488;-78
2023/02/06 01:05:36;;;;;;;21.35;19.56;;;;;;;0.25;62.76;101736.59;458481;114;922972;-76
2023/02/06 01:06:40;;;;;;;20.68;18.92;;;;;;;0.21;63.12;101743.17;460769;114;922607;-77
2023/02/06 01:07:43;;;;;;;20.86;19.09;;;;;;;0.20;63.41;101741.45;456822;116;930615;-79
2023/02/06 01:08:46;;;;;;;20.94;19.01;;;;;;;0.21;63.64;101747.67;459768;114;922542;-78
2023/02/06 01:09:50;;;;;;;21.38;19.60;;;;;;;0.20;63.58;101741.45;463473;114;922551;-77
2023/02/06 01:10:53;;;;;;;21.03;19.19;;;;;;;0.20;63.73;101740.60;456725;115;922814;-78
2023/02/06 01:11:56;;;;;;;21.33;19.51;;;;;;;0.17;63.78;101741.68;455032;116;922972;-78
2023/02/06 01:13:01;;;;;;;22.00;19.96;;;;;;;0.17;63.76;101740.83;457098;114;922434;-77
2023/02/06 01:14:04;;;;;;;21.69;19.71;;;;;;;0.16;63.97;101736.45;458126;114;922571;-78
2023/02/06 01:15:09;;;;;;;20.90;19.26;;;;;;;0.16;64.12;101734.64;464276;114;922774;-80
2023/02/06 01:16:15;;;;;;;21.62;19.82;;;;;;;0.17;64.19;101736.31;464478;114;922574;-77
2023/02/06 01:17:19;;;;;;;21.69;19.89;;;;;;;0.19;64.23;101737.06;461232;114;922839;-77
2023/02/06 01:18:22;;;;;;;22.26;20.44;;;;;;;0.19;64.06;101733.52;456845;116;922544;-77
2023/02/06 01:19:25;;;;;;;22.24;20.48;;;;;;;0.16;63.62;101737.31;461268;114;922887;-76
2023/02/06 01:20:29;;;;;;;21.49;19.59;;;;;;;0.13;63.41;101737.54;464243;114;922523;-78
2023/02/06 01:21:33;;;;;;;21.20;19.52;;;;;;;0.07;63.45;101740.69;461105;114;922469;-77
2023/02/06 01:22:36;;;;;;;22.13;20.26;;;;;;;0.05;63.54;101731.08;463840;114;922829;-77
2023/02/06 01:23:40;;;;;;;22.35;20.20;;;;;;;0.02;63.49;101732.16;458524;114;923458;-79
2023/02/06 01:24:43;;;;;;;22.50;20.63;;;;;;;0.00;63.53;101736.80;456797;116;922838;-79
2023/02/06 01:25:46;;;;;;;21.84;20.07;;;;;;;-0.01;63.70;101741.30;457103;114;930413;-78
2023/02/06 01:26:51;;;;;;;21.81;19.93;;;;;;;0.00;63.78;101736.80;462551;114;922492;-78
2023/02/06 01:27:54;;;;;;;21.31;19.31;;;;;;;0.01;63.76;101735.80;463272;114;922455;-78
2023/02/06 01:28:58;;;;;;;22.05;20.27;;;;;;;0.03;63.90;101739.23;456790;114;922590;-77
2023/02/06 01:30:03;;;;;;;21.13;19.45;;;;;;;0.04;63.77;101740.95;460123;114;922771;-78
2023/02/06 01:31:19;;;;;;;22.26;20.44;;;;;;;0.05;63.75;101733.76;463397;113;922581;-78
2023/02/06 01:32:22;;;;;;;23.21;21.11;;;;;;;0.04;64.00;101743.62;461945;115;922545;-78
2023/02/06 01:33:25;;;;;;;22.95;20.96;;;;;;;0.04;64.08;101740.95;458268;114;922522;-79
2023/02/06 01:34:28;;;;;;;22.34;20.36;;;;;;;0.04;64.11;101751.67;461914;114;922624;-78
2023/02/06 01:35:31;;;;;;;23.37;21.48;;;;;;;0.03;64.11;101741.91;464554;114;922512;-78
2023/02/06 01:36:36;;;;;;;23.19;21.26;;;;;;;0.02;63.95;101737.52;458715;114;923006;-78
2023/02/06 01:37:40;;;;;;;22.82;20.88;;;;;;;0.00;63.92;101747.52;458024;114;930530;-78
2023/02/06 01:38:44;;;;;;;23.23;21.15;;;;;;;-0.02;63.88;101741.42;464049;114;922808;-78
2023/02/06 01:39:47;;;;;;;23.18;21.16;;;;;;;-0.03;63.94;101745.06;462703;114;922485;-78
2023/02/06 01:40:54;;;;;;;22.79;20.91;;;;;;;-0.03;64.00;101742.37;457377;114;922548;-76
2023/02/06 01:41:57;;;;;;;24.68;22.23;;;;;;;-0.03;64.21;101747.74;455922;114;922361;-77
2023/02/06 01:43:00;;;;;;;21.75;19.93;;;;;;;-0.02;64.27;101746.78;455696;115;923030;-78
2023/02/06 01:44:10;;;;;;;24.05;21.79;;;;;;;-0.01;64.23;101749.35;456788;114;922950;-78
2023/02/06 01:45:26;;;;;;;24.49;22.27;;;;;;;-0.01;64.26;101745.81;456665;116;922528;-77
2023/02/06 01:46:29;;;;;;;25.56;23.29;;;;;;;-0.04;64.87;101743.34;459127;114;922783;-78
2023/02/06 01:47:33;;;;;;;25.38;23.04;;;;;;;-0.11;65.58;101747.50;448747;118;922491;-76
2023/02/06 01:48:45;;;;;;;25.29;23.13;;;;;;;-0.16;66.11;101742.46;442814;118;930284;-78
2023/02/06 01:49:50;;;;;;;26.45;23.91;;;;;;;-0.19;66.44;101747.22;444215;118;922978;-79
2023/02/06 01:50:56;;;;;;;26.29;23.77;;;;;;;-0.26;66.59;101745.97;458544;113;922518;-79
2023/02/06 01:52:21;;;;;;;24.87;22.68;;;;;;;-0.30;66.82;101742.67;457630;114;922879;-76
2023/02/06 01:53:26;;;;;;;25.29;23.01;;;;;;;-0.36;66.65;101753.00;458536;114;922933;-77
2023/02/06 01:54:29;;;;;;;25.89;23.44;;;;;;;-0.43;66.91;101747.23;463597;114;922516;-79
2023/02/06 01:55:36;;;;;;;25.12;22.59;;;;;;;-0.49;66.94;101745.87;456068;114;923037;-80
2023/02/06 01:56:46;;;;;;;25.12;22.98;;;;;;;-0.53;67.15;101752.44;462635;114;922514;-78
2023/02/06 01:57:51;;;;;;;23.68;21.62;;;;;;;-0.54;67.44;101755.23;464664;114;922531;-78
2023/02/06 01:58:57;;;;;;;25.63;23.29;;;;;;;-0.55;67.41;101746.33;464706;114;922605;-79
2023/02/06 02:00:04;;;;;;;26.29;23.84;;;;;;;-0.56;67.57;101747.33;464422;114;923230;-76
2023/02/06 02:01:09;;;;;;;25.33;23.17;;;;;;;-0.56;67.67;101750.01;461555;114;922603;-80
2023/02/06 02:02:14;;;;;;;25.57;23.23;;;;;;;-0.53;67.87;101744.41;459085;114;922594;-77
2023/02/06 02:03:17;;;;;;;26.17;23.89;;;;;;;-0.50;67.91;101743.34;455196;116;922898;-77
2023/02/06 02:04:23;;;;;;;25.43;22.99;;;;;;;-0.50;67.96;101746.84;461408;114;922845;-76
2023/02/06 02:05:26;;;;;;;25.81;23.52;;;;;;;-0.50;67.87;101749.52;461055;115;922401;-77
2023/02/06 02:06:32;;;;;;;27.42;24.92;;;;;;;-0.52;67.84;101748.80;456871;113;922478;-78
2023/02/06 02:07:39;;;;;;;25.94;23.69;;;;;;;-0.52;67.86;101747.95;458152;116;922413;-78
2023/02/06 02:08:44;;;;;;;27.13;24.58;;;;;;;-0.53;67.94;101746.23;461534;113;922830;-78
2023/02/06 02:09:48;;;;;;;25.90;23.67;;;;;;;-0.52;68.12;101754.16;463993;113;922554;-77
2023/02/06 02:10:52;;;;;;;26.75;24.34;;;;;;;-0.51;67.98;101755.87;459653;113;922578;-77
2023/02/06 02:11:55;;;;;;;28.14;25.53;;;;;;;-0.52;67.99;101755.98;458252;116;930249;-78
2023/02/06 02:12:58;;;;;;;27.14;24.41;;;;;;;-0.54;67.94;101758.77;466631;114;922257;-78
2023/02/06 02:14:04;;;;;;;28.12;25.36;;;;;;;-0.57;68.17;101756.33;459253;113;922605;-77
2023/02/06 02:15:07;;;;;;;30.09;26.05;;;;;;;-0.59;68.42;101760.08;459041;116;921991;-77
2023/02/06 02:16:20;;;;;;;28.23;25.44;;;;;;;-0.61;68.52;101760.21;462442;114;922061;-77
2023/02/06 02:17:45;;;;;;;30.01;26.46;;;;;;;-0.62;68.72;101757.64;465910;111;921961;-77
2023/02/06 02:19:00;;;;;;;27.79;25.03;;;;;;;-0.61;69.02;101762.03;465586;111;922100;-77
2023/02/06 02:20:14;;;;;;;28.78;25.92;;;;;;;-0.60;69.11;101750.33;458978;114;922034;-77
2023/02/06 02:21:33;;;;;;;27.96;25.11;;;;;;;-0.59;68.94;101760.94;463746;113;922189;-77
2023/02/06 02:22:45;;;;;;;27.56;24.90;;;;;;;-0.60;68.81;101759.22;461061;113;921824;-77
2023/02/06 02:24:08;;;;;;;28.01;25.17;;;;;;;-0.62;68.65;101765.67;460126;113;923341;-79
2023/02/06 02:25:41;;;;;;;28.84;26.07;;;;;;;-0.65;68.63;101760.53;458492;116;922287;-78
2023/02/06 02:27:03;;;;;;;28.42;25.61;;;;;;;-0.66;68.66;101764.20;465722;114;922519;-78
2023/02/06 02:28:17;;;;;;;32.27;27.13;;;;;;;-0.54;68.70;101768.63;501230;103;947138;-78
2023/02/06 02:29:23;;;;;;;29.80;26.98;;;;;;;-0.66;68.60;101770.38;485653;107;922485;-78
2023/02/06 02:30:39;;;;;;;28.61;25.93;;;;;;;-0.67;68.49;101771.38;482684;109;922849;-78
2023/02/06 02:32:02;;;;;;;28.24;25.66;;;;;;;-0.71;68.41;101766.34;484461;108;922461;-76
2023/02/06 02:33:20;;;;;;;28.52;25.88;;;;;;;-0.77;68.61;101759.61;489143;106;922562;-78
2023/02/06 02:34:33;;;;;;;30.01;27.19;;;;;;;-0.82;68.73;101764.45;491833;107;922916;-76
2023/02/06 02:35:48;;;;;;;28.70;26.08;;;;;;;-0.84;69.19;101769.09;485722;107;922371;-79
2023/02/06 02:36:56;;;;;;;29.08;26.38;;;;;;;-0.82;69.43;101760.92;492253;107;922664;-78
2023/02/06 02:38:21;;;;;;;29.19;26.56;;;;;;;-0.78;69.45;101765.10;483338;106;922433;-79
2023/02/06 02:39:28;;;;;;;29.72;27.09;;;;;;;-0.74;69.37;101763.90;484061;109;922436;-78
2023/02/06 02:40:40;;;;;;;29.29;26.69;;;;;;;-0.72;69.41;101759.30;485398;107;922485;-79
2023/02/06 02:41:56;;;;;;;28.34;25.56;;;;;;;-0.70;69.23;101768.91;484578;108;922718;-79
2023/02/06 02:43:22;;;;;;;28.83;26.04;;;;;;;-0.69;69.18;101767.09;491392;107;922792;-78
2023/02/06 02:44:35;;;;;;;28.12;25.71;;;;;;;-0.67;69.26;101766.02;489874;107;922491;-80
2023/02/06 02:45:50;;;;;;;29.13;26.49;;;;;;;-0.62;69.28;101760.32;492567;107;922805;-77
2023/02/06 02:46:58;;;;;;;29.91;27.18;;;;;;;-0.59;68.64;101768.11;468410;113;922439;-79
2023/02/06 02:48:10;;;;;;;30.68;27.85;;;;;;;-0.61;68.40;101770.92;484416;109;922399;-78
2023/02/06 02:49:16;;;;;;;31.35;28.26;;;;;;;-0.62;68.43;101766.53;490380;106;922531;-78
2023/02/06 02:50:20;;;;;;;29.83;26.98;;;;;;;-0.61;68.25;101773.61;492021;107;922699;-79
2023/02/06 02:51:24;;;;;;;29.88;27.17;;;;;;;-0.62;68.28;101771.89;487144;107;922447;-77
2023/02/06 02:52:28;;;;;;;29.86;27.06;;;;;;;-0.60;68.16;101767.25;486302;107;930489;-78
2023/02/06 02:53:31;;;;;;;30.16;27.37;;;;;;;-0.60;68.08;101771.75;488608;106;922503;-77
2023/02/06 02:54:34;;;;;;;29.91;27.11;;;;;;;-0.61;67.97;101770.92;490620;108;922361;-77
2023/02/06 02:55:37;;;;;;;29.63;27.00;;;;;;;-0.65;68.21;101773.92;488804;107;922517;-77
2023/02/06 02:56:41;;;;;;;29.89;27.15;;;;;;;-0.68;68.57;101763.45;493193;107;922678;-79
2023/02/06 02:57:47;;;;;;;29.69;27.15;;;;;;;-0.69;68.97;101769.77;490643;107;930451;-79
2023/02/06 02:59:00;;;;;;;29.37;26.69;;;;;;;-0.68;69.37;101758.95;488146;107;922465;-77
2023/02/06 03:00:03;;;;;;;29.23;26.57;;;;;;;-0.66;69.53;101770.38;489116;107;922572;-79
2023/02/06 03:01:10;;;;;;;31.31;28.24;;;;;;;-0.66;69.54;101773.06;489599;107;922451;-77
2023/02/06 03:02:26;;;;;;;31.04;28.21;;;;;;;-0.68;69.61;101768.80;493562;107;930569;-77
2023/02/06 03:03:32;;;;;;;29.40;26.57;;;;;;;-0.70;69.22;101762.70;492837;107;922450;-78
2023/02/06 03:04:47;;;;;;;29.74;27.11;;;;;;;-0.74;68.94;101769.25;489498;108;922520;-78
2023/02/06 03:06:13;;;;;;;29.31;26.69;;;;;;;-0.79;68.68;101768.74;489289;107;922536;-79
2023/02/06 03:07:28;;;;;;;29.66;26.97;;;;;;;-0.82;68.81;101761.77;493080;107;922579;-77
2023/02/06 03:08:41;;;;;;;28.86;26.35;;;;;;;-0.80;69.01;101770.56;489638;107;922486;-78
2023/02/06 03:09:48;;;;;;;28.51;25.98;;;;;;;-0.77;68.87;101770.32;487943;107;922416;-80
2023/02/06 03:11:03;;;;;;;30.82;27.71;;;;;;;-0.76;68.81;101769.36;485360;107;922441;-78
2023/02/06 03:12:16;;;;;;;29.87;27.19;;;;;;;-0.75;68.67;101772.89;484286;107;922608;-77
2023/02/06 03:13:29;;;;;;;28.98;26.34;;;;;;;-0.74;68.70;101770.11;492863;107;923063;-80
2023/02/06 03:14:41;;;;;;;28.91;26.29;;;;;;;-0.72;68.66;101762.83;492297;107;922486;-78
2023/02/06 03:16:02;;;;;;;31.02;28.12;;;;;;;-0.69;68.61;101762.59;487085;107;922637;-78
2023/02/06 03:17:09;;;;;;;28.72;26.13;;;;;;;-0.67;68.15;101767.84;487370;107;922462;-78
2023/02/06 03:18:18;;;;;;;29.04;26.52;;;;;;;-0.70;68.06;101760.88;492340;107;922359;-77
2023/02/06 03:19:34;;;;;;;30.31;27.51;;;;;;;-0.69;67.89;101761.73;488228;106;922379;-77
2023/02/06 03:20:41;;;;;;;30.10;27.20;;;;;;;-0.69;67.70;101767.95;488720;107;923015;-77
2023/02/06 03:21:45;;;;;;;30.01;27.01;;;;;;;-0.71;67.36;101767.20;490192;107;922591;-78
2023/02/06 03:22:50;;;;;;;28.24;25.78;;;;;;;-0.72;67.21;101765.51;485924;107;922510;-76
2023/02/06 03:23:56;;;;;;;28.66;26.17;;;;;;;-0.74;67.12;101766.58;491340;107;922631;-77
2023/02/06 03:25:02;;;;;;;28.97;26.43;;;;;;;-0.76;67.13;101763.14;489575;107;930394;-78
2023/02/06 03:26:08;;;;;;;28.89;26.56;;;;;;;-0.76;67.24;101765.83;486878;107;922545;-77
2023/02/06 03:27:15;;;;;;;29.46;26.71;;;;;;;-0.76;67.29;101761.33;485517;107;922399;-78
2023/02/06 03:28:25;;;;;;;29.18;26.55;;;;;;;-0.76;66.99;101768.50;491064;105;922640;-77
2023/02/06 03:29:31;;;;;;;29.32;26.60;;;;;;;-0.76;67.08;101769.36;492477;107;922790;-77
2023/02/06 03:30:37;;;;;;;29.38;26.91;;;;;;;-0.74;67.07;101767.44;485584;108;922461;-78
2023/02/06 03:31:53;;;;;;;30.48;27.57;;;;;;;-0.72;66.88;101770.87;473017;111;922499;-79
2023/02/06 03:32:59;;;;;;;30.88;27.83;;;;;;;-0.71;66.72;101763.66;473618;111;922544;-77
2023/02/06 03:34:08;;;;;;;29.11;26.59;;;;;;;-0.70;66.81;101771.59;467124;112;922861;-77
2023/02/06 03:35:18;;;;;;;29.12;26.59;;;;;;;-0.67;66.60;101770.52;470632;111;922900;-77
2023/02/06 03:36:23;;;;;;;28.32;25.89;;;;;;;-0.65;66.57;101779.28;471960;111;922884;-78
2023/02/06 03:37:27;;;;;;;30.03;27.22;;;;;;;-0.63;66.65;101769.31;482803;108;922395;-79
2023/02/06 03:38:31;;;;;;;28.19;25.62;;;;;;;-0.59;66.65;101768.11;487039;108;922443;-76
2023/02/06 03:39:35;;;;;;;29.86;27.11;;;;;;;-0.56;66.50;101770.58;487577;108;930111;-78
2023/02/06 03:40:42;;;;;;;29.21;26.57;;;;;;;-0.53;66.57;101773.88;485220;108;930558;-79
2023/02/06 03:41:46;;;;;;;28.03;25.84;;;;;;;-0.49;66.50;101769.98;461233;113;922581;-79
2023/02/06 03:42:53;;;;;;;26.24;24.12;;;;;;;-0.45;66.34;101771.49;470207;112;922492;-77
2023/02/06 03:43:58;;;;;;;28.44;25.51;;;;;;;-0.42;66.23;101765.89;471066;110;923560;-77
2023/02/06 03:45:05;;;;;;;28.48;26.04;;;;;;;-0.41;66.15;101772.11;479079;109;922665;-78
2023/02/06 03:46:11;;;;;;;27.94;25.54;;;;;;;-0.42;65.78;101763.20;477906;108;923054;-77
2023/02/06 03:47:17;;;;;;;26.97;24.52;;;;;;;-0.44;65.73;101773.17;475083;111;922550;-77
2023/02/06 03:48:27;;;;;;;28.42;25.73;;;;;;;-0.46;65.71;101771.59;483369;108;922968;-78
2023/02/06 03:49:33;;;;;;;27.59;25.19;;;;;;;-0.49;65.54;101766.45;483664;108;923510;-78
2023/02/06 03:50:39;;;;;;;26.83;24.59;;;;;;;-0.51;65.59;101769.27;482344;108;922262;-77
2023/02/06 03:51:46;;;;;;;28.49;26.00;;;;;;;-0.52;65.52;101770.23;471681;110;922295;-77
2023/02/06 03:52:50;;;;;;;29.89;27.19;;;;;;;-0.51;65.29;101779.13;479846;108;922436;-78
2023/02/06 03:53:56;;;;;;;28.32;25.62;;;;;;;-0.54;65.13;101768.63;473254;110;922264;-78
2023/02/06 03:55:03;;;;;;;28.63;26.07;;;;;;;-0.57;65.06;101780.44;470822;112;930312;-78
2023/02/06 03:56:09;;;;;;;30.19;27.43;;;;;;;-0.57;64.77;101776.90;473875;110;922421;-77
2023/02/06 03:57:18;;;;;;;28.72;26.12;;;;;;;-0.59;64.77;101770.79;485497;108;922457;-78
2023/02/06 03:58:20;;;;;;;28.33;26.01;;;;;;;-0.64;64.72;101773.81;487240;108;922758;-77
2023/02/06 03:59:25;;;;;;;30.22;27.46;;;;;;;-0.67;64.61;101776.73;481816;108;922878;-78
2023/02/06 04:00:30;;;;;;;27.45;25.15;;;;;;;-0.71;64.41;101777.91;484828;108;922964;-78
2023/02/06 04:01:34;;;;;;;30.51;27.69;;;;;;;-0.75;64.52;101778.25;462774;112;922396;-77
2023/02/06 04:02:37;;;;;;;28.27;25.80;;;;;;;-0.74;64.77;101782.64;472964;110;922980;-78
2023/02/06 04:03:41;;;;;;;28.43;25.72;;;;;;;-0.73;64.78;101779.00;476931;111;922948;-77
2023/02/06 04:04:44;;;;;;;30.11;27.39;;;;;;;-0.72;64.80;101788.75;476691;111;922355;-78
2023/02/06 04:05:47;;;;;;;29.16;26.42;;;;;;;-0.71;64.69;101780.58;475843;109;922701;-77
2023/02/06 04:06:50;;;;;;;28.58;25.88;;;;;;;-0.73;64.78;101787.89;479288;110;930277;-78
2023/02/06 04:07:55;;;;;;;29.76;26.90;;;;;;;-0.75;64.89;101783.61;471641;110;922481;-78
2023/02/06 04:08:58;;;;;;;28.88;26.40;;;;;;;-0.77;64.81;101789.06;471857;110;922258;-77
2023/02/06 04:10:01;;;;;;;29.48;26.67;;;;;;;-0.78;64.56;101789.20;472735;110;922347;-78
2023/02/06 04:11:04;;;;;;;29.12;26.57;;;;;;;-0.80;64.57;101789.30;475257;110;922482;-78
2023/02/06 04:12:07;;;;;;;29.22;26.68;;;;;;;-0.80;64.48;101788.45;473731;111;922357;-76
2023/02/06 04:13:11;;;;;;;30.56;27.66;;;;;;;-0.81;64.50;101790.27;477178;111;922242;-78
2023/02/06 04:14:14;;;;;;;28.91;26.46;;;;;;;-0.80;64.60;101793.80;477051;111;930369;-78
2023/02/06 04:15:17;;;;;;;29.14;26.59;;;;;;;-0.79;64.54;101796.37;475849;111;922155;-77
2023/02/06 04:16:20;;;;;;;30.42;27.67;;;;;;;-0.80;64.29;101786.63;475373;110;922208;-78
2023/02/06 04:17:23;;;;;;;29.30;26.70;;;;;;;-0.82;64.01;101791.23;476093;110;922034;-77
2023/02/06 04:18:28;;;;;;;28.38;25.87;;;;;;;-0.87;63.95;101794.25;474731;111;922554;-80
2023/02/06 04:19:31;;;;;;;30.59;27.92;;;;;;;-0.90;63.81;101796.30;477369;111;922590;-77
2023/02/06 04:20:39;;;;;;;28.81;26.31;;;;;;;-0.94;63.82;101790.30;477234;111;922406;-78
2023/02/06 04:21:40;;;;;;;29.02;26.44;;;;;;;-0.98;63.74;101795.98;475348;110;922269;-77
2023/02/06 04:22:42;;;;;;;28.17;25.68;;;;;;;-1.00;63.80;101803.30;478762;110;923299;-79
2023/02/06 04:23:46;;;;;;;29.64;27.09;;;;;;;-1.03;63.83;101803.50;479511;110;923211;-78
2023/02/06 04:24:49;;;;;;;28.01;25.43;;;;;;;-1.04;63.88;101797.28;462758;114;922488;-77
2023/02/06 04:25:52;;;;;;;28.62;26.22;;;;;;;-1.04;64.08;101797.28;464063;112;922487;-77
2023/02/06 04:26:55;;;;;;;28.49;25.94;;;;;;;-1.02;64.04;101797.19;469241;111;922502;-78
2023/02/06 04:27:58;;;;;;;27.18;25.02;;;;;;;-1.00;64.15;101798.80;469625;112;922812;-76
2023/02/06 04:29:01;;;;;;;28.14;25.60;;;;;;;-0.97;64.16;101806.59;467731;113;923166;-77
2023/02/06 04:30:05;;;;;;;28.23;25.82;;;;;;;-0.95;64.12;101804.67;467734;113;922539;-76
2023/02/06 04:31:08;;;;;;;29.34;26.67;;;;;;;-0.95;63.87;101796.64;472370;112;923356;-77
2023/02/06 04:32:11;;;;;;;28.61;26.02;;;;;;;-0.95;63.90;101810.02;487162;106;922249;-78
2023/02/06 04:33:14;;;;;;;28.18;25.72;;;;;;;-0.94;64.00;101803.68;493266;107;922492;-77
2023/02/06 04:34:17;;;;;;;29.49;26.62;;;;;;;-0.92;63.95;101804.44;492953;107;922482;-77
2023/02/06 04:35:21;;;;;;;28.03;25.64;;;;;;;-0.91;63.87;101805.30;493753;107;922489;-76
2023/02/06 04:36:24;;;;;;;26.72;24.39;;;;;;;-0.90;63.87;101812.37;492514;107;922813;-77
2023/02/06 04:37:27;;;;;;;27.26;24.81;;;;;;;-0.90;63.71;101817.72;484566;109;922540;-76
2023/02/06 04:38:30;;;;;;;28.52;25.95;;;;;;;-0.90;63.61;101815.05;484660;107;923053;-78
2023/02/06 04:39:33;;;;;;;27.22;24.91;;;;;;;-0.89;63.75;101811.41;484502;109;922914;-76
2023/02/06 04:40:36;;;;;;;27.81;25.37;;;;;;;-0.88;63.61;101811.27;489480;107;922790;-77
2023/02/06 04:41:39;;;;;;;29.07;26.57;;;;;;;-0.86;63.77;101822.73;492631;107;922453;-77
2023/02/06 04:42:42;;;;;;;27.58;25.28;;;;;;;-0.83;63.81;101815.45;492540;107;922528;-77
2023/02/06 04:43:45;;;;;;;27.72;25.40;;;;;;;-0.80;63.82;101820.58;493467;107;922500;-80
2023/02/06 04:44:48;;;;;;;27.13;24.92;;;;;;;-0.77;63.68;101820.37;493662;107;922730;-78
2023/02/06 04:45:51;;;;;;;27.67;25.24;;;;;;;-0.74;63.55;101823.67;492821;107;922427;-78
2023/02/06 04:46:54;;;;;;;27.64;25.24;;;;;;;-0.73;63.54;101819.17;484287;109;922717;-78
2023/02/06 04:47:57;;;;;;;26.99;24.74;;;;;;;-0.72;63.47;101821.75;479171;108;922604;-78
2023/02/06 04:49:02;;;;;;;27.72;25.36;;;;;;;-0.70;63.39;101825.15;487109;107;922462;-78
2023/02/06 04:50:06;;;;;;;28.93;26.41;;;;;;;-0.68;63.55;101825.05;484433;109;922454;-78
2023/02/06 04:51:09;;;;;;;26.55;24.30;;;;;;;-0.64;63.54;101827.38;487942;107;922667;-77
2023/02/06 04:52:12;;;;;;;27.19;24.95;;;;;;;-0.59;63.62;101830.58;491184;107;922504;-77
2023/02/06 04:53:16;;;;;;;26.11;23.96;;;;;;;-0.56;63.51;101821.47;490507;108;922465;-78
2023/02/06 04:54:19;;;;;;;26.87;24.35;;;;;;;-0.54;63.44;101828.41;493274;107;922554;-77
2023/02/06 04:55:22;;;;;;;26.64;24.36;;;;;;;-0.51;63.43;101835.38;492126;107;922455;-76
2023/02/06 04:56:25;;;;;;;26.44;24.03;;;;;;;-0.51;63.43;101830.88;485231;107;922899;-79
2023/02/06 04:57:28;;;;;;;27.01;24.76;;;;;;;-0.49;63.39;101831.60;487055;107;922587;-77